Old Washington, Ohio
Current Conditions -  °F | °C
As of 4:53 AM on Sunday 25 Jan 2015 (Local Time) from KZZV Reporting Station
Haze Haze  
Wind Chill: 27°   Ceiling: 3900
Heat Index: 33°   Visibility: 4mi
Dew Point: 29°   Wind: 7mph
Humidity: 85%   Direction: 200°SSW
Pressure: 29.76"   Gusts: NA
Location:  40.04°N, 81.44°W
Report Text: KZZV 250953Z AUTO 20006KT 4SM BR OVC039 01/M02 A2976 RMK AO2 SLP085 T00061017
Loading
Personal Weather Stations






























Interactive Weather Map New forecast layout! Learn more

10-Day Weather Forecast

Advertisements
Track Severe Weather on mobile